CheckWX is a tool to help pilots better visualize weather data.  It is not intended as a substitute for an official pre-flight weather briefing.

15:15:08 UTC

KOXI METAR
Starke County Airport
Knox, Indiana, USA
Current

40 mins ago

KOXI 291435Z AUTO 23025G38KT 10SM BKN028 BKN037 OVC050 08/04 A2959 RMK AO1
Observed
Mar-29 @ 14:35 UTC
Wind
  • 230° at 25 KTS
  • Gusting to 38 KTS
Visibility
10 SM
Flight Rules
MVFR
Cloud Levels
  • Broken at 2,800' AGL
  • Broken at 3,700' AGL
  • Overcast at 5,000' AGL
Temperature
C / 46°F
Dewpoint
C / 39°F
Humidity
76%
Altimeter
29.59" Hg
Pressure
1002.02 hPa
Previous

60 mins ago

KOXI 291415Z AUTO 23028G37KT 10SM SCT028 SCT035 BKN043 10/03 A2958 RMK AO1
Observed
Mar-29 @ 14:15 UTC
Wind
  • 230° at 28 KTS
  • Gusting to 37 KTS
Visibility
10 SM
Flight Rules
VFR
Cloud Levels
  • Scattered at 2,800' AGL
  • Scattered at 3,500' AGL
  • Broken at 4,300' AGL
Temperature
10°C / 50°F
Dewpoint
C / 37°F
Humidity
62%
Altimeter
29.58" Hg
Pressure
1001.72 hPa
Previous

1 hour ago

KOXI 291355Z AUTO 23032G40KT 10SM BKN033 OVC042 08/03 A2958 RMK AO1
Observed
Mar-29 @ 13:55 UTC
Wind
  • 230° at 32 KTS
  • Gusting to 40 KTS
Visibility
10 SM
Flight Rules
VFR
Cloud Levels
  • Broken at 3,300' AGL
  • Overcast at 4,200' AGL
Temperature
C / 46°F
Dewpoint
C / 37°F
Humidity
71%
Altimeter
29.58" Hg
Pressure
1001.72 hPa